createdAt,value
2019-02-14T00:00:05.334Z,5.20
2019-02-14T00:03:09.289Z,5.20
2019-02-14T00:06:13.102Z,5.30
2019-02-14T00:09:17.006Z,5.20
2019-02-14T00:12:21.090Z,5.20
2019-02-14T00:15:25.117Z,5.20
2019-02-14T00:18:28.922Z,5.30
2019-02-14T00:21:32.826Z,5.30
2019-02-14T00:24:36.781Z,5.30
2019-02-14T00:27:40.571Z,5.30
2019-02-14T00:30:44.537Z,5.20
2019-02-14T00:33:48.389Z,5.20
2019-02-14T00:36:52.287Z,5.30
2019-02-14T00:39:56.223Z,5.20
2019-02-14T00:43:01.048Z,5.30
2019-02-14T00:46:04.948Z,5.30
2019-02-14T00:49:08.845Z,5.20
2019-02-14T00:52:12.714Z,5.20
2019-02-14T00:55:16.617Z,5.20
2019-02-14T00:58:20.559Z,5.20
2019-02-14T01:01:24.483Z,5.10
2019-02-14T01:04:28.361Z,5.20
2019-02-14T01:07:32.245Z,5.20
2019-02-14T01:10:36.082Z,5.20
2019-02-14T01:13:40.048Z,5.20
2019-02-14T01:16:43.896Z,5.10
2019-02-14T01:19:47.867Z,5.10
2019-02-14T01:22:51.694Z,5.10
2019-02-14T01:25:55.670Z,5.10
2019-02-14T01:28:59.589Z,5.10
2019-02-14T01:32:03.491Z,5.10
2019-02-14T01:35:09.891Z,5.10
2019-02-14T01:38:13.765Z,5.10
2019-02-14T01:41:17.654Z,5.10
2019-02-14T01:44:21.521Z,5.10
2019-02-14T01:47:25.402Z,5.10
2019-02-14T01:50:29.359Z,5.00
2019-02-14T01:53:33.188Z,5.10
2019-02-14T01:56:37.059Z,5.10
2019-02-14T01:59:40.928Z,5.10
2019-02-14T02:02:44.838Z,5.10
2019-02-14T02:05:50.797Z,5.10
2019-02-14T02:08:54.246Z,5.00
2019-02-14T02:11:58.087Z,5.10
2019-02-14T02:15:01.942Z,5.10
2019-02-14T02:18:05.933Z,5.10
2019-02-14T02:21:09.807Z,5.10
2019-02-14T02:24:13.677Z,5.10
2019-02-14T02:27:17.543Z,5.00
2019-02-14T02:30:21.460Z,5.10
2019-02-14T02:33:25.326Z,5.00
2019-02-14T02:36:29.208Z,5.10
2019-02-14T02:39:33.130Z,5.00
2019-02-14T02:42:37.020Z,5.00
2019-02-14T02:45:40.946Z,5.00
2019-02-14T02:48:44.782Z,5.00
2019-02-14T02:51:48.648Z,5.00
2019-02-14T02:54:52.528Z,5.00
2019-02-14T02:57:56.406Z,5.00
2019-02-14T03:01:00.261Z,5.00
2019-02-14T03:04:04.162Z,5.00
2019-02-14T03:07:08.084Z,5.00
2019-02-14T03:10:14.848Z,5.00
2019-02-14T03:13:18.706Z,4.90
2019-02-14T03:16:22.607Z,4.90
2019-02-14T03:19:26.508Z,4.90
2019-02-14T03:22:30.338Z,4.90
2019-02-14T03:25:35.699Z,4.90
2019-02-14T03:28:39.726Z,4.90
2019-02-14T03:31:43.644Z,4.90
2019-02-14T03:34:47.521Z,4.90
2019-02-14T03:37:51.458Z,4.90
2019-02-14T03:40:55.280Z,4.90
2019-02-14T03:43:59.162Z,4.90
2019-02-14T03:47:02.990Z,5.00
2019-02-14T03:50:09.842Z,5.00
2019-02-14T03:53:13.721Z,5.00
2019-02-14T03:56:17.576Z,5.00
2019-02-14T03:59:21.495Z,5.00
2019-02-14T04:02:25.316Z,5.00
2019-02-14T04:05:29.210Z,5.00
2019-02-14T04:08:33.086Z,5.00
2019-02-14T04:11:36.917Z,4.90
2019-02-14T04:14:40.906Z,4.90
2019-02-14T04:17:44.812Z,4.90
2019-02-14T04:20:48.715Z,4.90
2019-02-14T04:23:52.696Z,4.80
2019-02-14T04:26:56.566Z,4.80
2019-02-14T04:30:00.512Z,4.80
2019-02-14T04:33:04.337Z,4.80
2019-02-14T04:36:08.241Z,4.80
2019-02-14T04:39:12.162Z,4.80
2019-02-14T04:42:16.030Z,4.80
2019-02-14T04:45:19.882Z,4.80
2019-02-14T04:48:23.816Z,4.70
2019-02-14T04:51:27.645Z,4.80
2019-02-14T04:54:31.548Z,4.80
2019-02-14T04:57:35.496Z,4.70
2019-02-14T05:00:39.377Z,4.70
2019-02-14T05:03:43.251Z,4.70
2019-02-14T05:06:47.119Z,4.70
2019-02-14T05:09:51.046Z,4.70
2019-02-14T05:12:54.882Z,4.60
2019-02-14T05:15:58.793Z,4.70
2019-02-14T05:19:02.656Z,4.70
2019-02-14T05:22:06.548Z,4.70
2019-02-14T05:25:10.813Z,4.70
2019-02-14T05:28:14.713Z,4.70
2019-02-14T05:31:18.528Z,4.70
2019-02-14T05:34:22.461Z,4.70
2019-02-14T05:37:26.300Z,4.70
2019-02-14T05:40:30.268Z,4.70
2019-02-14T05:43:34.152Z,4.70
2019-02-14T05:46:38.092Z,4.60
2019-02-14T05:49:41.969Z,4.50
2019-02-14T05:52:45.887Z,4.50
2019-02-14T05:55:49.801Z,4.50
2019-02-14T05:58:53.668Z,4.50
2019-02-14T06:01:57.550Z,4.40
2019-02-14T06:05:01.421Z,4.20
2019-02-14T06:08:05.321Z,4.20
2019-02-14T06:11:09.207Z,4.20
2019-02-14T06:14:13.057Z,4.20
2019-02-14T06:17:16.948Z,4.20
2019-02-14T06:20:20.824Z,4.20
2019-02-14T06:23:24.768Z,4.20
2019-02-14T06:26:28.586Z,4.20
2019-02-14T06:29:32.542Z,4.20
2019-02-14T06:32:36.355Z,4.30
2019-02-14T06:35:40.319Z,4.40
2019-02-14T06:38:44.156Z,4.50
2019-02-14T06:41:48.069Z,4.60
2019-02-14T06:44:52.018Z,4.80
2019-02-14T06:47:55.891Z,5.20
2019-02-14T06:50:59.806Z,6.20
2019-02-14T06:54:03.650Z,6.70
2019-02-14T06:57:07.566Z,8.00
2019-02-14T07:00:16.152Z,7.80
2019-02-14T07:03:20.002Z,9.10
2019-02-14T07:06:23.943Z,9.70
2019-02-14T07:09:27.801Z,10.30
2019-02-14T07:12:31.651Z,11.00
2019-02-14T07:15:35.489Z,11.40
2019-02-14T07:18:39.398Z,10.70
2019-02-14T07:21:43.273Z,9.90
2019-02-14T07:24:47.241Z,10.70
2019-02-14T07:27:51.221Z,10.40
2019-02-14T07:30:55.066Z,10.30
2019-02-14T07:33:58.907Z,9.60
2019-02-14T07:37:02.801Z,8.60
2019-02-14T07:40:09.613Z,7.80
2019-02-14T07:43:13.534Z,7.30
2019-02-14T07:46:22.562Z,7.20
2019-02-14T07:49:22.937Z,7.40
2019-02-14T07:52:26.928Z,8.40
2019-02-14T07:55:30.808Z,8.10
2019-02-14T07:58:34.618Z,7.60
2019-02-14T08:01:38.597Z,7.20
2019-02-14T08:04:42.397Z,7.10
2019-02-14T08:07:46.332Z,6.90
2019-02-14T08:10:50.176Z,7.40
2019-02-14T08:13:54.059Z,7.80
2019-02-14T08:16:57.970Z,7.60
2019-02-14T08:20:01.811Z,7.30
2019-02-14T08:23:05.707Z,7.10
2019-02-14T08:26:11.090Z,7.20
2019-02-14T08:29:15.128Z,7.20
2019-02-14T08:32:19.464Z,7.10
2019-02-14T08:35:23.269Z,7.10
2019-02-14T08:38:27.158Z,7.00
2019-02-14T08:41:31.010Z,7.00
2019-02-14T08:44:34.864Z,7.20
2019-02-14T08:47:38.787Z,7.20
2019-02-14T08:50:42.669Z,7.00
2019-02-14T08:53:46.553Z,7.30
2019-02-14T08:56:50.402Z,7.50
2019-02-14T08:59:54.291Z,7.70
2019-02-14T09:02:58.113Z,8.00
2019-02-14T09:06:02.023Z,7.90
2019-02-14T09:09:06.531Z,7.70
2019-02-14T09:12:10.405Z,7.60
2019-02-14T09:15:15.169Z,7.60
2019-02-14T09:18:19.057Z,7.60
2019-02-14T09:21:22.905Z,7.50
2019-02-14T09:24:27.049Z,7.40
2019-02-14T09:27:30.998Z,7.30
2019-02-14T09:30:34.886Z,7.50
2019-02-14T09:33:38.834Z,7.30
2019-02-14T09:36:43.026Z,7.50
2019-02-14T09:39:46.949Z,7.50
2019-02-14T09:42:50.835Z,7.60
2019-02-14T09:45:54.776Z,7.70
2019-02-14T09:48:58.652Z,7.80
2019-02-14T09:52:02.669Z,8.00
2019-02-14T09:55:08.743Z,8.00
2019-02-14T09:58:13.401Z,7.80
2019-02-14T10:01:17.328Z,7.80
2019-02-14T10:04:21.181Z,7.80
2019-02-14T10:07:25.072Z,7.80
2019-02-14T10:10:28.956Z,7.70
2019-02-14T10:13:32.891Z,7.60
2019-02-14T10:16:36.761Z,7.70
2019-02-14T10:19:40.647Z,8.00
2019-02-14T10:22:44.502Z,8.40
2019-02-14T10:25:48.529Z,8.50
2019-02-14T10:28:52.407Z,8.20
2019-02-14T10:31:56.368Z,8.60
2019-02-14T10:35:00.284Z,9.40
2019-02-14T10:38:04.163Z,10.80
2019-02-14T10:41:08.025Z,11.00
2019-02-14T10:44:11.932Z,10.20
2019-02-14T10:47:15.776Z,9.50
2019-02-14T10:50:19.693Z,8.80
2019-02-14T10:53:23.532Z,8.20
2019-02-14T10:56:27.398Z,8.00
2019-02-14T10:59:31.436Z,8.10
2019-02-14T11:02:35.333Z,8.20
2019-02-14T11:05:39.171Z,8.00
2019-02-14T11:08:43.052Z,7.80
2019-02-14T11:11:46.914Z,7.70
2019-02-14T11:14:50.767Z,7.70
2019-02-14T11:17:54.619Z,7.70
2019-02-14T11:20:58.455Z,7.70
2019-02-14T11:24:02.339Z,7.80
2019-02-14T11:27:06.222Z,7.80
2019-02-14T11:30:12.846Z,7.80
2019-02-14T11:33:16.742Z,8.20
2019-02-14T11:36:20.571Z,8.30
2019-02-14T11:39:24.516Z,8.40
2019-02-14T11:42:30.107Z,8.20
2019-02-14T11:45:34.080Z,8.00
2019-02-14T11:48:37.978Z,7.70
2019-02-14T11:51:41.830Z,7.50
2019-02-14T11:54:45.715Z,7.60
2019-02-14T11:57:49.577Z,7.60
2019-02-14T12:00:53.446Z,7.70
2019-02-14T12:03:57.378Z,7.80
2019-02-14T12:07:01.207Z,7.70
2019-02-14T12:10:13.344Z,7.70
2019-02-14T12:13:13.253Z,8.30
2019-02-14T12:16:17.127Z,8.60
2019-02-14T12:19:20.987Z,8.50
2019-02-14T12:22:24.926Z,8.50
2019-02-14T12:25:30.903Z,8.30
2019-02-14T12:28:34.807Z,8.10
2019-02-14T12:31:38.736Z,7.90
2019-02-14T12:34:42.527Z,7.70
2019-02-14T12:37:46.453Z,7.40
2019-02-14T12:40:50.372Z,7.40
2019-02-14T12:43:54.287Z,7.20
2019-02-14T12:46:58.219Z,7.20
2019-02-14T12:50:02.023Z,7.20
2019-02-14T12:53:05.944Z,7.20
2019-02-14T12:56:09.834Z,7.20
2019-02-14T12:59:13.727Z,7.40
2019-02-14T13:02:17.576Z,7.30
2019-02-14T13:05:21.661Z,7.40
2019-02-14T13:08:25.544Z,7.50
2019-02-14T13:11:29.452Z,7.60
2019-02-14T13:14:33.404Z,7.60
2019-02-14T13:17:37.310Z,7.60
2019-02-14T13:20:41.289Z,7.50
2019-02-14T13:23:45.244Z,7.50
2019-02-14T13:26:49.081Z,7.50
2019-02-14T13:29:52.972Z,7.50
2019-02-14T13:32:56.809Z,7.60
2019-02-14T13:36:00.743Z,7.60
2019-02-14T13:39:06.934Z,7.50
2019-02-14T13:42:10.919Z,7.40
2019-02-14T13:45:17.823Z,7.30
2019-02-14T13:48:21.751Z,7.30
2019-02-14T13:51:25.777Z,7.30
2019-02-14T13:54:29.652Z,7.30
2019-02-14T13:57:33.527Z,7.30
2019-02-14T14:00:37.347Z,7.30
2019-02-14T14:03:41.227Z,7.20
2019-02-14T14:06:45.058Z,7.20
2019-02-14T14:09:48.990Z,7.00
2019-02-14T14:12:52.897Z,7.00
2019-02-14T14:15:56.799Z,7.00
2019-02-14T14:19:06.289Z,6.90
2019-02-14T14:22:06.243Z,6.90
2019-02-14T14:25:11.531Z,6.80
2019-02-14T14:28:15.451Z,6.80
2019-02-14T14:31:19.332Z,6.70
2019-02-14T14:34:23.242Z,6.60
2019-02-14T14:37:27.084Z,6.40
2019-02-14T14:40:31.016Z,6.30
2019-02-14T14:43:36.427Z,6.20
2019-02-14T14:46:40.569Z,6.10
2019-02-14T14:49:44.419Z,6.00
2019-02-14T14:52:48.354Z,6.00
2019-02-14T14:55:52.203Z,6.10
2019-02-14T14:58:56.136Z,6.20
2019-02-14T15:02:00.094Z,6.20
2019-02-14T15:05:03.932Z,6.30
2019-02-14T15:08:07.870Z,6.30
2019-02-14T15:11:11.771Z,6.20
2019-02-14T15:14:15.642Z,6.10
2019-02-14T15:17:19.883Z,6.00
2019-02-14T15:20:23.817Z,6.00
2019-02-14T15:23:27.648Z,6.10
2019-02-14T15:26:31.581Z,6.20
2019-02-14T15:29:35.433Z,6.10
2019-02-14T15:32:39.320Z,6.20
2019-02-14T15:35:43.261Z,6.10
2019-02-14T15:38:47.482Z,6.00
2019-02-14T15:41:51.320Z,5.90
2019-02-14T15:44:55.206Z,5.80
2019-02-14T15:47:59.087Z,5.80
2019-02-14T15:51:02.996Z,5.70
2019-02-14T15:54:07.484Z,5.70
2019-02-14T15:57:11.926Z,5.50
2019-02-14T16:00:16.178Z,5.50
2019-02-14T16:03:20.043Z,5.40
2019-02-14T16:06:26.063Z,5.30
2019-02-14T16:09:29.978Z,5.30
2019-02-14T16:12:33.808Z,5.20
2019-02-14T16:15:37.700Z,5.10
2019-02-14T16:18:41.535Z,5.00
2019-02-14T16:21:45.412Z,4.90
2019-02-14T16:24:49.335Z,4.80
2019-02-14T16:27:53.198Z,4.70
2019-02-14T16:30:57.125Z,4.60
2019-02-14T16:34:01.011Z,4.40
2019-02-14T16:37:05.400Z,4.30
2019-02-14T16:40:10.251Z,4.40
2019-02-14T16:43:14.171Z,4.40
2019-02-14T16:46:18.039Z,4.40
2019-02-14T16:49:21.945Z,4.50
2019-02-14T16:52:25.940Z,4.50
2019-02-14T16:55:29.812Z,4.70
2019-02-14T16:58:33.705Z,4.80
2019-02-14T17:01:37.606Z,4.80
2019-02-14T17:04:41.494Z,4.90
2019-02-14T17:07:45.403Z,4.90
2019-02-14T17:10:49.295Z,4.90
2019-02-14T17:13:56.910Z,5.00
2019-02-14T17:17:00.544Z,5.00
2019-02-14T17:20:07.318Z,5.10
2019-02-14T17:23:11.327Z,5.20
2019-02-14T17:26:15.424Z,5.30
2019-02-14T17:29:19.420Z,5.30
2019-02-14T17:32:23.409Z,5.30
2019-02-14T17:35:27.297Z,5.30
2019-02-14T17:38:31.245Z,5.40
2019-02-14T17:41:35.155Z,5.40
2019-02-14T17:44:39.368Z,5.40
2019-02-14T17:47:43.526Z,5.40
2019-02-14T17:50:47.442Z,5.40
2019-02-14T17:53:51.420Z,5.40
2019-02-14T17:56:55.270Z,5.50
2019-02-14T17:59:59.286Z,5.50
2019-02-14T18:03:05.259Z,5.40
2019-02-14T18:06:10.336Z,5.50
2019-02-14T18:09:14.235Z,5.50
2019-02-14T18:12:18.529Z,5.40
2019-02-14T18:15:22.566Z,5.40
2019-02-14T18:18:26.564Z,5.40
2019-02-14T18:21:30.426Z,5.40
2019-02-14T18:24:34.362Z,5.40
2019-02-14T18:27:38.406Z,5.40
2019-02-14T18:30:42.286Z,5.40
2019-02-14T18:33:46.206Z,5.40
2019-02-14T18:36:50.178Z,5.40
2019-02-14T18:39:54.137Z,5.40
2019-02-14T18:42:57.974Z,5.40
2019-02-14T18:46:01.892Z,5.30
2019-02-14T18:49:05.901Z,5.30
2019-02-14T18:52:09.845Z,5.30
2019-02-14T18:55:14.024Z,5.30
2019-02-14T18:58:26.076Z,5.40
2019-02-14T19:01:23.570Z,5.40
2019-02-14T19:04:27.574Z,5.40
2019-02-14T19:07:31.710Z,5.40
2019-02-14T19:10:35.616Z,5.40
2019-02-14T19:13:39.556Z,5.30
2019-02-14T19:16:43.600Z,5.30
2019-02-14T19:19:47.605Z,5.30
2019-02-14T19:22:51.757Z,5.30
2019-02-14T19:25:55.581Z,5.30
2019-02-14T19:28:59.580Z,5.30
2019-02-14T19:32:03.597Z,5.30
2019-02-14T19:35:09.259Z,5.30
2019-02-14T19:38:13.338Z,5.30
2019-02-14T19:41:25.148Z,5.30
2019-02-14T19:44:23.065Z,5.30
2019-02-14T19:47:26.967Z,5.30
2019-02-14T19:50:30.952Z,5.30
2019-02-14T19:53:35.120Z,5.30
2019-02-14T19:56:39.089Z,5.40
2019-02-14T19:59:43.195Z,5.40
2019-02-14T20:02:47.129Z,5.30
2019-02-14T20:05:51.146Z,5.40
2019-02-14T20:08:55.771Z,5.40
2019-02-14T20:11:59.641Z,5.50
2019-02-14T20:15:04.012Z,5.50
2019-02-14T20:18:07.927Z,5.50
2019-02-14T20:21:13.285Z,5.50
2019-02-14T20:24:17.115Z,5.50
2019-02-14T20:27:21.095Z,5.50
2019-02-14T20:30:24.985Z,5.50
2019-02-14T20:33:28.990Z,5.50
2019-02-14T20:36:32.940Z,5.50
2019-02-14T20:39:37.051Z,5.50
2019-02-14T20:42:41.091Z,5.50
2019-02-14T20:45:45.185Z,5.50
2019-02-14T20:48:49.218Z,5.50
2019-02-14T20:51:53.437Z,5.50
2019-02-14T20:54:57.482Z,5.50
2019-02-14T20:58:01.526Z,5.50
2019-02-14T21:01:07.135Z,5.40
2019-02-14T21:04:11.332Z,5.50
2019-02-14T21:07:15.284Z,5.50
2019-02-14T21:10:19.289Z,5.40
2019-02-14T21:13:23.212Z,5.50
2019-02-14T21:16:27.127Z,5.50
2019-02-14T21:19:31.044Z,5.40
2019-02-14T21:22:34.880Z,5.40
2019-02-14T21:25:38.738Z,5.40
2019-02-14T21:28:42.768Z,5.40
2019-02-14T21:31:46.625Z,5.40
2019-02-14T21:34:50.573Z,5.40
2019-02-14T21:37:54.456Z,5.40
2019-02-14T21:40:58.321Z,5.40
2019-02-14T21:44:02.251Z,5.40
2019-02-14T21:47:06.216Z,5.40
2019-02-14T21:50:11.602Z,5.40
2019-02-14T21:53:15.738Z,5.40
2019-02-14T21:56:19.629Z,5.40
2019-02-14T21:59:23.619Z,5.40
2019-02-14T22:02:27.602Z,5.40
2019-02-14T22:05:31.581Z,5.40
2019-02-14T22:08:35.568Z,5.40
2019-02-14T22:11:39.497Z,5.40
2019-02-14T22:14:43.408Z,5.40
2019-02-14T22:17:47.377Z,5.40
2019-02-14T22:20:51.393Z,5.40
2019-02-14T22:23:55.283Z,5.40
2019-02-14T22:26:59.138Z,5.40
2019-02-14T22:30:04.418Z,5.30
2019-02-14T22:33:08.258Z,5.40
2019-02-14T22:36:12.449Z,5.40
2019-02-14T22:39:16.540Z,5.40
2019-02-14T22:42:20.772Z,5.30
2019-02-14T22:45:24.612Z,5.30
2019-02-14T22:48:28.531Z,5.30
2019-02-14T22:51:32.380Z,5.30
2019-02-14T22:54:36.266Z,5.30
2019-02-14T22:57:40.381Z,5.30
2019-02-14T23:00:47.692Z,5.30
2019-02-14T23:03:51.499Z,5.30
2019-02-14T23:06:55.395Z,5.30
2019-02-14T23:09:59.376Z,5.30
2019-02-14T23:13:03.324Z,5.30
2019-02-14T23:16:07.409Z,5.30
2019-02-14T23:19:11.371Z,5.30
2019-02-14T23:22:15.257Z,5.30
2019-02-14T23:25:19.082Z,5.30
2019-02-14T23:28:23.056Z,5.30
2019-02-14T23:31:34.089Z,5.20
2019-02-14T23:34:38.202Z,5.30
2019-02-14T23:37:42.054Z,5.30
2019-02-14T23:40:45.974Z,5.30
2019-02-14T23:43:49.962Z,5.30
2019-02-14T23:46:53.796Z,5.30
2019-02-14T23:49:57.731Z,5.30
2019-02-14T23:53:01.567Z,5.30
2019-02-14T23:56:05.459Z,5.30
2019-02-14T23:59:09.496Z,5.30
